Aviation Digital Data Service (ADDS)

Output produced by METARs form (1322 UTC 21 August 2019)
found at http://www.aviationweather.gov/metar/data/
 
METAR text: VTSF 211300Z 00000KT 9999 FEW016CB SCT018 25/24 Q1009 NOSIG
Conditions at: VTSF (NAKHON SI THAMMA, TH) observed 1300 UTC 21 August 2019
Temperature: 25.0°C (77°F)
Dewpoint: 24.0°C (75°F) [RH = 94%]
Pressure (altimeter): 29.79 inches Hg (1009.0 mb)
Winds: calm
Visibility: 6 or more miles (10+ km)
Ceiling: at least 12,000 feet AGL
Clouds: few clouds at 1600 feet AGL
scattered clouds at 1800 feet AGL
Weather: no significant weather observed at this time

METAR text: VTSF 211200Z VRB03KT 9999 FEW016CB BKN018 25/24 Q1008 NOSIG
Conditions at: VTSF (NAKHON SI THAMMA, TH) observed 1200 UTC 21 August 2019
Temperature: 25.0°C (77°F)
Dewpoint: 24.0°C (75°F) [RH = 94%]
Pressure (altimeter): 29.76 inches Hg (1008.0 mb)
Winds: variable direction winds at 3 MPH (3 knots; 1.5 m/s)
Visibility: 6 or more miles (10+ km)
Ceiling: 1800 feet AGL
Clouds: few clouds at 1600 feet AGL
broken clouds at 1800 feet AGL
Weather: no significant weather observed at this time

METAR text: VTSF 211100Z 25004KT 220V300 9999 FEW016CB SCT018 28/26 Q1008 NOSIG
Conditions at: VTSF (NAKHON SI THAMMA, TH) observed 1100 UTC 21 August 2019
Temperature: 28.0°C (82°F)
Dewpoint: 26.0°C (79°F) [RH = 89%]
Pressure (altimeter): 29.76 inches Hg (1008.0 mb)
Winds: from the WSW (250 degrees) at 5 MPH (4 knots; 2.1 m/s)
Visibility: 6 or more miles (10+ km)
Ceiling: at least 12,000 feet AGL
Clouds: few clouds at 1600 feet AGL
scattered clouds at 1800 feet AGL
Weather: no significant weather observed at this time

METAR text: VTSF 211000Z 13004KT 100V180 9999 SCT018 27/26 Q1007 RETSRA NOSIG
Conditions at: VTSF (NAKHON SI THAMMA, TH) observed 1000 UTC 21 August 2019
Temperature: 27.0°C (81°F)
Dewpoint: 26.0°C (79°F) [RH = 94%]
Pressure (altimeter): 29.73 inches Hg (1007.0 mb)
Winds: from the SE (130 degrees) at 5 MPH (4 knots; 2.1 m/s)
Visibility: 6 or more miles (10+ km)
Ceiling: at least 12,000 feet AGL
Clouds: scattered clouds at 1800 feet AGL
Weather: no significant weather observed at this time

METAR text: VTSF 210900Z VRB04KT 5000 TSRA FEW016CB BKN018 26/24 Q1007 NOSIG
Conditions at: VTSF (NAKHON SI THAMMA, TH) observed 0900 UTC 21 August 2019
Temperature: 26.0°C (79°F)
Dewpoint: 24.0°C (75°F) [RH = 89%]
Pressure (altimeter): 29.73 inches Hg (1007.0 mb)
Winds: variable direction winds at 5 MPH (4 knots; 2.1 m/s)
Visibility: 3 miles ( 5 km)
Ceiling: 1800 feet AGL
Clouds: few clouds at 1600 feet AGL
broken clouds at 1800 feet AGL
Weather: TSRA  (rain associated with thunderstorm(s))

METAR text: VTSF 210800Z VRB08KT 0800 +TSRA BKN015 FEW016CB BKN018 29/25 Q1007 BECMG TL0830 8000 -TSRA
Conditions at: VTSF (NAKHON SI THAMMA, TH) observed 0800 UTC 21 August 2019
Temperature: 29.0°C (84°F)
Dewpoint: 25.0°C (77°F) [RH = 79%]
Pressure (altimeter): 29.73 inches Hg (1007.0 mb)
Winds: variable direction winds at 9 MPH (8 knots; 4.1 m/s)
Visibility: 0.50 miles (0.80 km)
Ceiling: 1500 feet AGL
Clouds: broken clouds at 1500 feet AGL
few clouds at 1600 feet AGL
broken clouds at 1800 feet AGL
Weather: +TSRA  (heavy rain associated with thunderstorm(s))

METAR text: VTSF 210700Z VRB05KT 9999 FEW018 37/24 Q1006 NOSIG
Conditions at: VTSF (NAKHON SI THAMMA, TH) observed 0700 UTC 21 August 2019
Temperature: 37.0°C (99°F)
Dewpoint: 24.0°C (75°F) [RH = 48%]
Pressure (altimeter): 29.70 inches Hg (1006.0 mb)
Winds: variable direction winds at 6 MPH (5 knots; 2.6 m/s)
Visibility: 6 or more miles (10+ km)
Ceiling: at least 12,000 feet AGL
Clouds: few clouds at 1800 feet AGL
Weather: no significant weather observed at this time

METAR text: VTSF 210600Z VRB03KT 9999 FEW018 37/24 Q1008 NOSIG
Conditions at: VTSF (NAKHON SI THAMMA, TH) observed 0600 UTC 21 August 2019
Temperature: 37.0°C (99°F)
Dewpoint: 24.0°C (75°F) [RH = 48%]
Pressure (altimeter): 29.76 inches Hg (1008.0 mb)
Winds: variable direction winds at 3 MPH (3 knots; 1.5 m/s)
Visibility: 6 or more miles (10+ km)
Ceiling: at least 12,000 feet AGL
Clouds: few clouds at 1800 feet AGL
Weather: no significant weather observed at this time

METAR text: VTSF 210500Z 24003KT 9999 FEW018 35/23 Q1008 NOSIG
Conditions at: VTSF (NAKHON SI THAMMA, TH) observed 0500 UTC 21 August 2019
Temperature: 35.0°C (95°F)
Dewpoint: 23.0°C (73°F) [RH = 50%]
Pressure (altimeter): 29.76 inches Hg (1008.0 mb)
Winds: from the WSW (240 degrees) at 3 MPH (3 knots; 1.5 m/s)
Visibility: 6 or more miles (10+ km)
Ceiling: at least 12,000 feet AGL
Clouds: few clouds at 1800 feet AGL
Weather: no significant weather observed at this time

METAR text: VTSF 210400Z 24004KT 9999 FEW018 34/22 Q1009 NOSIG
Conditions at: VTSF (NAKHON SI THAMMA, TH) observed 0400 UTC 21 August 2019
Temperature: 34.0°C (93°F)
Dewpoint: 22.0°C (72°F) [RH = 50%]
Pressure (altimeter): 29.79 inches Hg (1009.0 mb)
Winds: from the WSW (240 degrees) at 5 MPH (4 knots; 2.1 m/s)
Visibility: 6 or more miles (10+ km)
Ceiling: at least 12,000 feet AGL
Clouds: few clouds at 1800 feet AGL
Weather: no significant weather observed at this time

METAR text: VTSF 210300Z 32003KT 9999 FEW018 33/23 Q1010 NOSIG
Conditions at: VTSF (NAKHON SI THAMMA, TH) observed 0300 UTC 21 August 2019
Temperature: 33.0°C (91°F)
Dewpoint: 23.0°C (73°F) [RH = 56%]
Pressure (altimeter): 29.82 inches Hg (1010.0 mb)
Winds: from the NW (320 degrees) at 3 MPH (3 knots; 1.5 m/s)
Visibility: 6 or more miles (10+ km)
Ceiling: at least 12,000 feet AGL
Clouds: few clouds at 1800 feet AGL
Weather: no significant weather observed at this time

METAR text: VTSF 210200Z VRB02KT 9999 FEW018 33/24 Q1009 NOSIG
Conditions at: VTSF (NAKHON SI THAMMA, TH) observed 0200 UTC 21 August 2019
Temperature: 33.0°C (91°F)
Dewpoint: 24.0°C (75°F) [RH = 59%]
Pressure (altimeter): 29.79 inches Hg (1009.0 mb)
Winds: variable direction winds at 2 MPH (2 knots; 1.0 m/s)
Visibility: 6 or more miles (10+ km)
Ceiling: at least 12,000 feet AGL
Clouds: few clouds at 1800 feet AGL
Weather: no significant weather observed at this time

METAR text: VTSF 210100Z 20003KT 170V260 9999 FEW018 30/25 Q1009 NOSIG
Conditions at: VTSF (NAKHON SI THAMMA, TH) observed 0100 UTC 21 August 2019
Temperature: 30.0°C (86°F)
Dewpoint: 25.0°C (77°F) [RH = 75%]
Pressure (altimeter): 29.79 inches Hg (1009.0 mb)
Winds: from the SSW (200 degrees) at 3 MPH (3 knots; 1.5 m/s)
Visibility: 6 or more miles (10+ km)
Ceiling: at least 12,000 feet AGL
Clouds: few clouds at 1800 feet AGL
Weather: no significant weather observed at this time

METAR text: VTSF 210000Z 00000KT 9999 FEW018 25/24 Q1009 NOSIG
Conditions at: VTSF (NAKHON SI THAMMA, TH) observed 0000 UTC 21 August 2019
Temperature: 25.0°C (77°F)
Dewpoint: 24.0°C (75°F) [RH = 94%]
Pressure (altimeter): 29.79 inches Hg (1009.0 mb)
Winds: calm
Visibility: 6 or more miles (10+ km)
Ceiling: at least 12,000 feet AGL
Clouds: few clouds at 1800 feet AGL
Weather: no significant weather observed at this time

METAR text: VTSF 202300Z 00000KT 8000 FEW018 24/23 Q1008 NOSIG
Conditions at: VTSF (NAKHON SI THAMMA, TH) observed 2300 UTC 20 August 2019
Temperature: 24.0°C (75°F)
Dewpoint: 23.0°C (73°F) [RH = 94%]
Pressure (altimeter): 29.76 inches Hg (1008.0 mb)
Winds: calm
Visibility: 5 miles ( 8 km)
Ceiling: at least 12,000 feet AGL
Clouds: few clouds at 1800 feet AGL
Weather: no significant weather observed at this time

METAR text: VTSF 201300Z 29005KT 250V330 9999 FEW018 27/24 Q1007 NOSIG
Conditions at: VTSF (NAKHON SI THAMMA, TH) observed 1300 UTC 20 August 2019
Temperature: 27.0°C (81°F)
Dewpoint: 24.0°C (75°F) [RH = 84%]
Pressure (altimeter): 29.73 inches Hg (1007.0 mb)
Winds: from the WNW (290 degrees) at 6 MPH (5 knots; 2.6 m/s)
Visibility: 6 or more miles (10+ km)
Ceiling: at least 12,000 feet AGL
Clouds: few clouds at 1800 feet AGL
Weather: no significant weather observed at this time

METAR text: VTSF 201200Z 07004KT 9999 FEW016CB 30/23 Q1006 NOSIG
Conditions at: VTSF (NAKHON SI THAMMA, TH) observed 1200 UTC 20 August 2019
Temperature: 30.0°C (86°F)
Dewpoint: 23.0°C (73°F) [RH = 66%]
Pressure (altimeter): 29.70 inches Hg (1006.0 mb)
Winds: from the ENE (70 degrees) at 5 MPH (4 knots; 2.1 m/s)
Visibility: 6 or more miles (10+ km)
Ceiling: at least 12,000 feet AGL
Clouds: few clouds at 1600 feet AGL
Weather: no significant weather observed at this time

METAR text: VTSF 201100Z 08006KT 050V120 9999 FEW018 31/23 Q1006 NOSIG
Conditions at: VTSF (NAKHON SI THAMMA, TH) observed 1100 UTC 20 August 2019
Temperature: 31.0°C (88°F)
Dewpoint: 23.0°C (73°F) [RH = 63%]
Pressure (altimeter): 29.70 inches Hg (1006.0 mb)
Winds: from the E (80 degrees) at 7 MPH (6 knots; 3.1 m/s)
Visibility: 6 or more miles (10+ km)
Ceiling: at least 12,000 feet AGL
Clouds: few clouds at 1800 feet AGL
Weather: no significant weather observed at this time

METAR text: VTSF 201000Z 07009KT 040V100 9999 FEW018 SCT022 33/24 Q1006 NOSIG
Conditions at: VTSF (NAKHON SI THAMMA, TH) observed 1000 UTC 20 August 2019
Temperature: 33.0°C (91°F)
Dewpoint: 24.0°C (75°F) [RH = 59%]
Pressure (altimeter): 29.70 inches Hg (1006.0 mb)
Winds: from the ENE (70 degrees) at 10 MPH (9 knots; 4.6 m/s)
Visibility: 6 or more miles (10+ km)
Ceiling: at least 12,000 feet AGL
Clouds: few clouds at 1800 feet AGL
scattered clouds at 2200 feet AGL
Weather: no significant weather observed at this time

METAR text: VTSF 200900Z 04008KT 360V070 9999 BKN018 33/24 Q1006 NOSIG
Conditions at: VTSF (NAKHON SI THAMMA, TH) observed 0900 UTC 20 August 2019
Temperature: 33.0°C (91°F)
Dewpoint: 24.0°C (75°F) [RH = 59%]
Pressure (altimeter): 29.70 inches Hg (1006.0 mb)
Winds: from the NE (40 degrees) at 9 MPH (8 knots; 4.1 m/s)
Visibility: 6 or more miles (10+ km)
Ceiling: 1800 feet AGL
Clouds: broken clouds at 1800 feet AGL
Weather: no significant weather observed at this time

METAR text: VTSF 200800Z 04005KT 330V100 9999 SCT018 34/23 Q1006 NOSIG
Conditions at: VTSF (NAKHON SI THAMMA, TH) observed 0800 UTC 20 August 2019
Temperature: 34.0°C (93°F)
Dewpoint: 23.0°C (73°F) [RH = 53%]
Pressure (altimeter): 29.70 inches Hg (1006.0 mb)
Winds: from the NE (40 degrees) at 6 MPH (5 knots; 2.6 m/s)
Visibility: 6 or more miles (10+ km)
Ceiling: at least 12,000 feet AGL
Clouds: scattered clouds at 1800 feet AGL
Weather: no significant weather observed at this time

METAR text: VTSF 200700Z 12004KT 040V180 9999 SCT018 35/22 Q1006 NOSIG
Conditions at: VTSF (NAKHON SI THAMMA, TH) observed 0700 UTC 20 August 2019
Temperature: 35.0°C (95°F)
Dewpoint: 22.0°C (72°F) [RH = 47%]
Pressure (altimeter): 29.70 inches Hg (1006.0 mb)
Winds: from the ESE (120 degrees) at 5 MPH (4 knots; 2.1 m/s)
Visibility: 6 or more miles (10+ km)
Ceiling: at least 12,000 feet AGL
Clouds: scattered clouds at 1800 feet AGL
Weather: no significant weather observed at this time

METAR text: VTSF 200600Z VRB03KT 9999 FEW018 36/22 Q1007 NOSIG
Conditions at: VTSF (NAKHON SI THAMMA, TH) observed 0600 UTC 20 August 2019
Temperature: 36.0°C (97°F)
Dewpoint: 22.0°C (72°F) [RH = 45%]
Pressure (altimeter): 29.73 inches Hg (1007.0 mb)
Winds: variable direction winds at 3 MPH (3 knots; 1.5 m/s)
Visibility: 6 or more miles (10+ km)
Ceiling: at least 12,000 feet AGL
Clouds: few clouds at 1800 feet AGL
Weather: no significant weather observed at this time

METAR text: VTSF 200500Z VRB03KT 9999 FEW018 36/23 Q1008 NOSIG
Conditions at: VTSF (NAKHON SI THAMMA, TH) observed 0500 UTC 20 August 2019
Temperature: 36.0°C (97°F)
Dewpoint: 23.0°C (73°F) [RH = 47%]
Pressure (altimeter): 29.76 inches Hg (1008.0 mb)
Winds: variable direction winds at 3 MPH (3 knots; 1.5 m/s)
Visibility: 6 or more miles (10+ km)
Ceiling: at least 12,000 feet AGL
Clouds: few clouds at 1800 feet AGL
Weather: no significant weather observed at this time

METAR text: VTSF 200400Z VRB04KT 9999 FEW018 34/22 Q1009 NOSIG
Conditions at: VTSF (NAKHON SI THAMMA, TH) observed 0400 UTC 20 August 2019
Temperature: 34.0°C (93°F)
Dewpoint: 22.0°C (72°F) [RH = 50%]
Pressure (altimeter): 29.79 inches Hg (1009.0 mb)
Winds: variable direction winds at 5 MPH (4 knots; 2.1 m/s)
Visibility: 6 or more miles (10+ km)
Ceiling: at least 12,000 feet AGL
Clouds: few clouds at 1800 feet AGL
Weather: no significant weather observed at this time

METAR text: VTSF 200300Z VRB02KT 9999 FEW018 34/23 Q1009 NOSIG
Conditions at: VTSF (NAKHON SI THAMMA, TH) observed 0300 UTC 20 August 2019
Temperature: 34.0°C (93°F)
Dewpoint: 23.0°C (73°F) [RH = 53%]
Pressure (altimeter): 29.79 inches Hg (1009.0 mb)
Winds: variable direction winds at 2 MPH (2 knots; 1.0 m/s)
Visibility: 6 or more miles (10+ km)
Ceiling: at least 12,000 feet AGL
Clouds: few clouds at 1800 feet AGL
Weather: no significant weather observed at this time

METAR text: VTSF 200200Z 14003KT 090V200 9999 FEW018 32/24 Q1010 NOSIG
Conditions at: VTSF (NAKHON SI THAMMA, TH) observed 0200 UTC 20 August 2019
Temperature: 32.0°C (90°F)
Dewpoint: 24.0°C (75°F) [RH = 63%]
Pressure (altimeter): 29.82 inches Hg (1010.0 mb)
Winds: from the SE (140 degrees) at 3 MPH (3 knots; 1.5 m/s)
Visibility: 6 or more miles (10+ km)
Ceiling: at least 12,000 feet AGL
Clouds: few clouds at 1800 feet AGL
Weather: no significant weather observed at this time

Forecast for: VTSF (NAKHON SI THAMMA, TH)
Text: TAF VTSF 211100Z 2112/2212 30005KT 9999 SCT020
Forecast period: 1200 UTC 21 August 2019 to 1200 UTC 22 August 2019
Forecast type: FROM: standard forecast or significant change
Winds: from the WNW (300 degrees) at 6 MPH (5 knots; 2.6 m/s)
Visibility: 6 or more miles 10+ km)
Ceiling: at least 12,000 feet AGL
Clouds: scattered clouds at 2000 feet AGL
Weather: no significant weather forecast for this period
Text: TEMPO 2112/2118 5000 TSRA FEW016CB SCT018 BKN100
Forecast period: 1200 to 1800 UTC 21 August 2019
Forecast type: TEMPORARY: The following changes expected for less than half the time period
Visibility: 3 miles (5 km)
Ceiling: 10000 feet AGL
Clouds: few clouds at 1600 feet AGL
scattered clouds at 1800 feet AGL
broken clouds at 10000 feet AGL
Weather: TSRA  (rain associated with thunderstorm(s))
Text: TEMPO 2206/2212 30010G20KT 5000 TSRA FEW016CB SCT018 BKN100
Forecast period: 0600 to 1200 UTC 22 August 2019
Forecast type: TEMPORARY: The following changes expected for less than half the time period
Winds: from the WNW (300 degrees) at 12 MPH (10 knots; 5.1 m/s)
gusting to 23 MPH (20 knots; 10.3 m/s)
Visibility: 3 miles (5 km)
Ceiling: 10000 feet AGL
Clouds: few clouds at 1600 feet AGL
scattered clouds at 1800 feet AGL
broken clouds at 10000 feet AGL
Weather: TSRA  (rain associated with thunderstorm(s))